Time;durP1;ratioP1;P1;durP2;ratioP2;P2;SDS_P1;SDS_P2;PMS_P1;PMS_P2;Temp;Humidity;BMP_temperature;BMP_pressure;BME280_temperature;BME280_humidity;BME280_pressure;Samples;Min_cycle;Max_cycle;Signal;HPM_P1;HPM_P2
2023/12/07 00:00:29;;;;;;;58.58;25.27;;;0.80;99.90;;;;;;4971627;28;20034;-62
2023/12/07 00:02:55;;;;;;;49.38;21.80;;;0.70;99.90;;;;;;4966090;28;20024;-62
2023/12/07 00:05:20;;;;;;;58.22;23.23;;;0.80;99.90;;;;;;4970385;28;20105;-62
2023/12/07 00:07:46;;;;;;;60.38;25.45;;;0.70;99.90;;;;;;4967271;28;20046;-61
2023/12/07 00:10:11;;;;;;;60.60;25.33;;;0.70;99.90;;;;;;4962688;28;20019;-61
2023/12/07 00:12:37;;;;;;;58.05;24.23;;;0.70;99.90;;;;;;4970022;28;20015;-62
2023/12/07 00:15:02;;;;;;;61.03;24.88;;;0.70;99.90;;;;;;4969372;28;20030;-62
2023/12/07 00:17:28;;;;;;;59.30;24.27;;;0.60;99.90;;;;;;4970300;28;20043;-61
2023/12/07 00:19:55;;;;;;;66.95;23.92;;;0.60;99.90;;;;;;4967968;28;20088;-62
2023/12/07 00:22:21;;;;;;;60.05;24.73;;;0.50;99.90;;;;;;4968504;28;20180;-62
2023/12/07 00:24:46;;;;;;;55.20;23.77;;;0.50;99.90;;;;;;4971283;28;20035;-64
2023/12/07 00:27:12;;;;;;;53.53;23.80;;;0.40;99.90;;;;;;4970814;28;20504;-62
2023/12/07 00:29:38;;;;;;;56.80;23.50;;;0.40;99.90;;;;;;4970373;28;20059;-62
2023/12/07 00:32:04;;;;;;;46.50;21.75;;;0.40;99.90;;;;;;4969554;28;20023;-61
2023/12/07 00:34:30;;;;;;;50.85;20.38;;;0.50;99.90;;;;;;4970701;28;20039;-62
2023/12/07 00:36:55;;;;;;;59.40;23.20;;;0.50;99.90;;;;;;4970974;28;20038;-63
2023/12/07 00:39:21;;;;;;;62.80;24.30;;;0.50;99.90;;;;;;4968322;28;20027;-61
2023/12/07 00:41:47;;;;;;;59.45;21.67;;;0.50;99.90;;;;;;4965930;28;20042;-62
2023/12/07 00:44:16;;;;;;;48.47;22.00;;;0.50;99.90;;;;;;4968060;28;20066;-62
2023/12/07 00:46:41;;;;;;;51.60;22.00;;;0.40;99.90;;;;;;4964584;28;20555;-61
2023/12/07 00:49:07;;;;;;;49.80;20.80;;;0.40;99.90;;;;;;4970411;28;20030;-62
2023/12/07 00:51:32;;;;;;;42.58;19.90;;;0.40;99.90;;;;;;4965392;28;20034;-61
2023/12/07 00:53:58;;;;;;;49.85;20.33;;;0.40;99.90;;;;;;4970755;28;20031;-61
2023/12/07 00:56:24;;;;;;;51.40;20.58;;;0.40;99.90;;;;;;4971033;28;20031;-62
2023/12/07 00:58:49;;;;;;;51.63;21.08;;;0.50;99.90;;;;;;4968020;28;20034;-61
2023/12/07 01:01:15;;;;;;;56.67;23.20;;;0.50;99.90;;;;;;4969687;28;20034;-61
2023/12/07 01:03:40;;;;;;;53.75;22.08;;;0.50;99.90;;;;;;4969689;28;20078;-62
2023/12/07 01:06:07;;;;;;;55.67;23.88;;;0.60;99.90;;;;;;4968767;28;20023;-63
2023/12/07 01:08:32;;;;;;;55.72;22.38;;;0.60;99.90;;;;;;4967218;28;20765;-62
2023/12/07 01:10:58;;;;;;;60.10;22.58;;;0.60;99.90;;;;;;4971494;28;20378;-62
2023/12/07 01:13:24;;;;;;;53.85;22.65;;;0.60;99.90;;;;;;4967301;28;20508;-62
2023/12/07 01:15:50;;;;;;;57.92;24.45;;;0.60;99.90;;;;;;4970548;28;20437;-61
2023/12/07 01:18:15;;;;;;;53.92;23.60;;;0.60;99.90;;;;;;4966355;28;20023;-61
2023/12/07 01:20:41;;;;;;;51.42;22.25;;;0.60;99.90;;;;;;4965559;28;20038;-62
2023/12/07 01:23:08;;;;;;;49.78;20.75;;;0.50;99.90;;;;;;4970130;28;20038;-62
2023/12/07 01:25:34;;;;;;;60.72;23.63;;;0.50;99.90;;;;;;4966202;28;20031;-61
2023/12/07 01:28:00;;;;;;;46.33;18.38;;;0.40;99.90;;;;;;4969766;28;20031;-62
2023/12/07 01:30:25;;;;;;;49.40;21.98;;;0.40;99.90;;;;;;4967287;28;20028;-61
2023/12/07 01:32:51;;;;;;;49.30;20.60;;;0.50;99.90;;;;;;4964689;28;20424;-61
2023/12/07 01:35:16;;;;;;;49.70;20.48;;;0.50;99.90;;;;;;4968969;28;20047;-60
2023/12/07 01:37:42;;;;;;;57.03;22.77;;;0.40;99.90;;;;;;4970626;28;20038;-62
2023/12/07 01:40:10;;;;;;;47.50;20.00;;;0.40;99.90;;;;;;4971657;28;20027;-62
2023/12/07 01:42:39;;;;;;;52.50;21.35;;;0.40;99.90;;;;;;4968351;28;20038;-62
2023/12/07 01:45:05;;;;;;;52.03;21.88;;;0.40;99.90;;;;;;4970487;28;20045;-62
2023/12/07 01:47:33;;;;;;;45.47;19.85;;;0.30;99.90;;;;;;4965739;28;20101;-62
2023/12/07 01:50:00;;;;;;;51.20;21.38;;;0.30;99.90;;;;;;4966059;28;20027;-61
2023/12/07 01:52:29;;;;;;;62.00;22.60;;;0.30;99.90;;;;;;4969548;28;20038;-62
2023/12/07 01:54:54;;;;;;;53.33;22.20;;;0.30;99.90;;;;;;4965957;28;20507;-62
2023/12/07 01:57:20;;;;;;;55.83;21.45;;;0.20;99.90;;;;;;4969843;28;20130;-62
2023/12/07 01:59:46;;;;;;;59.75;22.75;;;0.10;99.90;;;;;;4967501;28;20038;-62
2023/12/07 02:02:12;;;;;;;54.47;22.75;;;0.30;99.90;;;;;;4968988;28;20388;-62
2023/12/07 02:04:38;;;;;;;51.75;22.33;;;0.40;99.90;;;;;;4967681;28;20464;-62
2023/12/07 02:07:04;;;;;;;53.35;23.35;;;0.40;99.90;;;;;;4969923;28;20111;-61
2023/12/07 02:09:30;;;;;;;51.88;21.55;;;0.40;99.90;;;;;;4965927;28;20038;-61
2023/12/07 02:11:55;;;;;;;56.40;24.50;;;0.40;99.90;;;;;;4970992;28;20245;-61
2023/12/07 02:14:21;;;;;;;50.35;20.90;;;0.40;99.90;;;;;;4971828;28;20489;-62
2023/12/07 02:17:36;;;;;;;54.85;21.75;;;0.40;99.90;;;;;;4971561;28;20023;-62
2023/12/07 02:20:21;;;;;;;46.53;21.02;;;0.30;99.90;;;;;;4949094;28;20045;-62
2023/12/07 02:22:54;;;;;;;45.45;20.48;;;0.20;99.90;;;;;;4972290;28;20528;-61
2023/12/07 02:25:26;;;;;;;57.72;21.98;;;0.20;99.90;;;;;;4972617;28;20031;-61
2023/12/07 02:27:51;;;;;;;55.80;22.75;;;0.10;99.90;;;;;;4970950;28;20889;-62
2023/12/07 02:30:17;;;;;;;52.90;20.95;;;0.20;99.90;;;;;;4969021;28;20034;-62
2023/12/07 02:32:45;;;;;;;57.60;21.08;;;0.10;99.90;;;;;;4969797;28;20033;-63
2023/12/07 02:35:12;;;;;;;49.35;20.52;;;0.20;99.90;;;;;;4974033;28;20046;-62
2023/12/07 02:38:05;;;;;;;53.72;22.95;;;0.20;99.90;;;;;;4974084;28;20074;-60
2023/12/07 02:40:31;;;;;;;52.03;21.80;;;0.30;99.90;;;;;;4969028;28;20043;-62
2023/12/07 02:42:59;;;;;;;54.55;22.00;;;0.20;99.90;;;;;;4971246;28;21586;-62
2023/12/07 02:45:25;;;;;;;54.63;21.27;;;0.20;99.90;;;;;;4966546;28;20090;-62
2023/12/07 02:47:51;;;;;;;54.30;22.40;;;0.30;99.90;;;;;;4970583;28;20106;-61
2023/12/07 02:50:16;;;;;;;56.30;22.15;;;0.20;99.90;;;;;;4969144;28;20505;-60
2023/12/07 02:52:42;;;;;;;54.05;20.77;;;0.20;99.90;;;;;;4970668;28;20110;-62
2023/12/07 02:55:09;;;;;;;54.65;21.25;;;0.10;99.90;;;;;;4972767;28;20081;-62
2023/12/07 02:57:34;;;;;;;59.67;22.05;;;0.10;99.90;;;;;;4970427;28;20026;-61
2023/12/07 03:00:00;;;;;;;55.03;22.65;;;0.20;99.90;;;;;;4970338;28;20032;-62
2023/12/07 03:02:26;;;;;;;54.47;21.73;;;0.20;99.90;;;;;;4971196;28;20046;-62
2023/12/07 03:04:52;;;;;;;56.58;23.05;;;0.20;99.90;;;;;;4968620;28;20039;-62
2023/12/07 03:07:17;;;;;;;53.35;21.90;;;0.30;99.90;;;;;;4971508;28;20520;-62
2023/12/07 03:09:43;;;;;;;50.70;22.45;;;0.20;99.90;;;;;;4966978;28;20414;-62
2023/12/07 03:12:08;;;;;;;54.75;21.38;;;0.10;99.90;;;;;;4973606;28;20503;-62
2023/12/07 03:14:34;;;;;;;56.08;21.02;;;0.10;99.90;;;;;;4967524;28;20023;-62
2023/12/07 03:17:00;;;;;;;53.40;21.42;;;0.00;99.90;;;;;;4971064;28;20031;-62
2023/12/07 03:19:25;;;;;;;59.38;23.15;;;0.10;99.90;;;;;;4971646;28;20031;-62
2023/12/07 03:21:51;;;;;;;65.28;24.25;;;0.20;99.90;;;;;;4968505;28;20050;-62
2023/12/07 03:24:16;;;;;;;52.55;23.63;;;0.20;99.90;;;;;;4969258;28;20445;-60
2023/12/07 03:26:42;;;;;;;60.38;24.35;;;0.20;99.90;;;;;;4972598;28;20031;-62
2023/12/07 03:29:07;;;;;;;57.00;23.27;;;0.20;99.90;;;;;;4972670;28;20023;-62
2023/12/07 03:31:33;;;;;;;61.65;23.48;;;0.20;99.90;;;;;;4969297;28;20034;-61
2023/12/07 03:34:00;;;;;;;64.93;24.42;;;0.20;99.90;;;;;;4967161;28;20026;-62
2023/12/07 03:36:26;;;;;;;57.08;22.73;;;0.20;99.90;;;;;;4969365;28;20030;-62
2023/12/07 03:38:52;;;;;;;59.90;24.27;;;0.30;99.90;;;;;;4966587;28;20023;-62
2023/12/07 03:41:17;;;;;;;61.60;22.95;;;0.30;99.90;;;;;;4971948;28;20031;-62
2023/12/07 03:43:43;;;;;;;58.78;21.80;;;0.30;99.90;;;;;;4971792;28;20034;-62
2023/12/07 03:46:08;;;;;;;60.47;23.83;;;0.50;99.90;;;;;;4967773;28;20062;-62
2023/12/07 03:48:34;;;;;;;67.85;24.60;;;0.60;99.90;;;;;;4971519;28;20453;-61
2023/12/07 03:51:01;;;;;;;64.25;25.33;;;0.60;99.90;;;;;;4971147;28;20042;-61
2023/12/07 03:53:27;;;;;;;66.78;25.45;;;0.70;99.90;;;;;;4967980;28;20027;-62
2023/12/07 03:55:52;;;;;;;65.30;24.02;;;0.70;99.90;;;;;;4970570;28;20031;-61
2023/12/07 03:58:18;;;;;;;62.97;23.80;;;0.70;99.90;;;;;;4972363;28;20023;-62
2023/12/07 04:00:45;;;;;;;59.33;22.52;;;0.80;99.90;;;;;;4967746;28;20027;-62
2023/12/07 04:03:10;;;;;;;63.75;24.60;;;0.80;99.90;;;;;;4969804;28;20110;-62
2023/12/07 04:05:37;;;;;;;58.67;23.92;;;0.80;99.90;;;;;;4969507;28;20035;-62
2023/12/07 04:08:03;;;;;;;58.00;24.15;;;0.80;99.90;;;;;;4966289;28;20094;-62
2023/12/07 04:10:29;;;;;;;53.78;22.85;;;0.70;99.90;;;;;;4970867;28;20057;-62
2023/12/07 04:12:54;;;;;;;57.47;22.13;;;0.70;99.90;;;;;;4972472;28;20512;-62
2023/12/07 04:15:20;;;;;;;62.38;23.58;;;0.70;99.90;;;;;;4967869;28;20027;-62
2023/12/07 04:17:46;;;;;;;52.60;23.58;;;0.70;99.90;;;;;;4967470;28;20053;-62
2023/12/07 04:20:13;;;;;;;55.13;22.38;;;0.80;99.90;;;;;;4968200;28;20034;-60
2023/12/07 04:22:39;;;;;;;56.58;24.20;;;0.80;99.90;;;;;;4971195;28;20026;-61
2023/12/07 04:25:05;;;;;;;54.33;23.00;;;0.90;99.90;;;;;;4972966;28;20090;-61
2023/12/07 04:27:31;;;;;;;56.55;23.33;;;0.90;99.90;;;;;;4970683;28;20039;-60
2023/12/07 04:29:57;;;;;;;54.67;23.73;;;0.90;99.90;;;;;;4971636;28;20038;-63
2023/12/07 04:32:23;;;;;;;51.95;21.90;;;0.90;99.90;;;;;;4972331;28;20031;-62
2023/12/07 04:34:48;;;;;;;48.25;23.10;;;0.80;99.90;;;;;;4969746;28;20042;-63
2023/12/07 04:37:14;;;;;;;54.80;22.13;;;0.70;99.90;;;;;;4969225;28;20059;-61
2023/12/07 04:39:39;;;;;;;61.20;23.90;;;0.70;99.90;;;;;;4970945;28;20034;-62
2023/12/07 04:42:05;;;;;;;56.47;22.58;;;0.80;99.90;;;;;;4971087;28;20110;-62
2023/12/07 04:44:30;;;;;;;63.33;24.80;;;0.70;99.90;;;;;;4969049;28;20037;-61
2023/12/07 04:46:56;;;;;;;58.28;24.40;;;0.80;99.90;;;;;;4968245;28;20030;-62
2023/12/07 04:49:21;;;;;;;60.72;24.17;;;0.90;99.90;;;;;;4966963;28;20054;-61
2023/12/07 04:51:47;;;;;;;49.67;22.15;;;1.00;99.90;;;;;;4970400;28;20027;-62
2023/12/07 04:54:14;;;;;;;57.63;24.85;;;1.00;99.90;;;;;;4970927;28;20034;-60
2023/12/07 04:56:41;;;;;;;55.00;23.23;;;1.10;99.90;;;;;;4964181;28;20061;-62
2023/12/07 04:59:08;;;;;;;55.92;22.42;;;1.00;99.90;;;;;;4968744;28;20027;-62
2023/12/07 05:01:35;;;;;;;53.00;23.08;;;1.10;99.90;;;;;;4968966;28;20980;-62
2023/12/07 05:04:02;;;;;;;50.88;22.52;;;1.20;99.90;;;;;;4970328;28;20028;-62
2023/12/07 05:06:27;;;;;;;59.38;24.67;;;1.20;99.90;;;;;;4969559;28;20026;-61
2023/12/07 05:08:53;;;;;;;51.17;23.27;;;1.20;99.90;;;;;;4968575;28;20032;-62
2023/12/07 05:11:18;;;;;;;61.40;23.40;;;1.20;99.90;;;;;;4969532;28;20069;-62
2023/12/07 05:13:44;;;;;;;60.65;26.08;;;1.20;99.90;;;;;;4969002;28;20045;-62
2023/12/07 05:16:10;;;;;;;62.28;22.88;;;1.10;99.90;;;;;;4966928;28;20646;-62
2023/12/07 05:18:36;;;;;;;59.95;23.60;;;1.10;99.90;;;;;;4971167;28;20038;-62
2023/12/07 05:21:01;;;;;;;57.30;23.40;;;1.10;99.90;;;;;;4968628;28;20031;-61
2023/12/07 05:23:27;;;;;;;54.63;22.02;;;1.10;99.90;;;;;;4968471;28;20031;-62
2023/12/07 05:25:54;;;;;;;51.00;23.10;;;1.10;99.90;;;;;;4969012;28;20054;-62
2023/12/07 05:28:19;;;;;;;53.40;22.13;;;1.10;99.90;;;;;;4970001;28;20058;-62
2023/12/07 05:30:45;;;;;;;51.65;22.65;;;1.10;99.90;;;;;;4970261;28;20505;-62
2023/12/07 05:33:11;;;;;;;52.47;22.02;;;1.10;99.90;;;;;;4971462;28;20113;-62
2023/12/07 05:35:37;;;;;;;53.00;22.80;;;1.20;99.90;;;;;;4970248;28;20027;-62
2023/12/07 05:38:02;;;;;;;53.42;21.80;;;1.20;99.90;;;;;;4970950;28;20042;-61
2023/12/07 05:40:28;;;;;;;55.60;21.35;;;1.20;99.90;;;;;;4969695;28;20509;-62
2023/12/07 05:42:53;;;;;;;47.70;21.15;;;1.10;99.90;;;;;;4967925;28;20039;-62
2023/12/07 05:45:19;;;;;;;51.53;21.13;;;1.00;99.90;;;;;;4968326;28;20035;-61
2023/12/07 05:47:44;;;;;;;45.80;20.83;;;1.00;99.90;;;;;;4970738;28;20026;-62
2023/12/07 05:50:10;;;;;;;49.72;20.48;;;0.70;99.90;;;;;;4969032;28;20051;-63
2023/12/07 05:52:35;;;;;;;59.08;23.77;;;0.70;99.90;;;;;;4972940;28;20038;-60
2023/12/07 05:55:01;;;;;;;49.70;22.98;;;0.80;99.90;;;;;;4967403;28;20117;-61
2023/12/07 05:57:27;;;;;;;64.15;24.33;;;0.70;99.90;;;;;;4971004;28;20037;-63
2023/12/07 05:59:52;;;;;;;58.00;22.55;;;0.80;99.90;;;;;;4968321;28;20031;-62
2023/12/07 06:02:18;;;;;;;63.28;24.70;;;0.80;99.90;;;;;;4966260;28;20486;-62
2023/12/07 06:04:43;;;;;;;56.22;23.35;;;0.80;99.90;;;;;;4966503;28;20097;-62
2023/12/07 06:07:09;;;;;;;55.00;22.25;;;0.80;99.90;;;;;;4971091;28;21129;-62
2023/12/07 06:09:34;;;;;;;59.75;22.30;;;0.80;99.90;;;;;;4973566;28;20038;-61
2023/12/07 06:12:00;;;;;;;41.47;19.30;;;0.70;99.90;;;;;;4969985;28;20034;-60
2023/12/07 06:14:25;;;;;;;53.80;22.60;;;0.60;99.90;;;;;;4970041;28;20034;-62
2023/12/07 06:16:51;;;;;;;53.00;21.13;;;0.60;99.90;;;;;;4968723;28;20027;-62
2023/12/07 06:19:16;;;;;;;46.72;20.52;;;0.60;99.90;;;;;;4971712;28;20493;-61
2023/12/07 06:21:44;;;;;;;56.20;21.02;;;0.50;99.90;;;;;;4973050;28;20054;-61
2023/12/07 06:24:09;;;;;;;44.78;20.77;;;0.50;99.90;;;;;;4970777;28;20026;-62
2023/12/07 06:26:35;;;;;;;48.63;20.77;;;0.40;99.90;;;;;;4973292;28;20552;-62
2023/12/07 06:29:01;;;;;;;56.47;22.30;;;0.40;99.90;;;;;;4966437;28;20023;-61
2023/12/07 06:31:26;;;;;;;63.63;25.05;;;0.50;99.90;;;;;;4966656;28;20540;-59
2023/12/07 06:33:52;;;;;;;51.63;18.98;;;0.40;99.90;;;;;;4968071;28;20027;-61
2023/12/07 06:36:21;;;;;;;51.60;21.02;;;0.30;99.90;;;;;;4971273;28;20086;-62
2023/12/07 06:38:47;;;;;;;49.63;19.92;;;0.30;99.90;;;;;;4964298;28;20050;-60
2023/12/07 06:41:14;;;;;;;51.50;21.10;;;0.20;99.90;;;;;;4967534;28;21823;-62
2023/12/07 06:43:40;;;;;;;52.85;20.15;;;0.20;99.90;;;;;;4961378;28;20034;-60
2023/12/07 06:46:05;;;;;;;48.58;20.83;;;0.20;99.90;;;;;;4967442;28;20085;-62
2023/12/07 06:48:31;;;;;;;47.33;18.20;;;0.20;99.90;;;;;;4968250;28;20082;-62
2023/12/07 06:50:57;;;;;;;50.42;19.77;;;0.20;99.90;;;;;;4970316;28;20049;-62
2023/12/07 06:53:22;;;;;;;42.03;18.02;;;0.30;99.90;;;;;;4971347;28;20045;-63
2023/12/07 06:55:48;;;;;;;46.42;19.00;;;0.30;99.90;;;;;;4969404;28;20114;-61
2023/12/07 06:58:13;;;;;;;49.55;19.13;;;0.20;99.90;;;;;;4970161;28;20110;-61
2023/12/07 07:00:38;;;;;;;36.85;16.88;;;0.20;99.90;;;;;;4972173;28;20027;-61
2023/12/07 07:03:06;;;;;;;41.17;17.70;;;0.10;99.90;;;;;;4972689;28;20031;-62
2023/12/07 07:05:31;;;;;;;42.60;16.98;;;0.20;99.90;;;;;;4970657;28;20106;-62
2023/12/07 07:07:57;;;;;;;35.00;16.05;;;0.20;99.90;;;;;;4971120;28;20118;-62
2023/12/07 07:10:22;;;;;;;37.15;16.25;;;0.20;99.90;;;;;;4971745;28;20497;-62
2023/12/07 07:12:48;;;;;;;34.25;15.02;;;0.20;99.90;;;;;;4967629;28;20050;-62
2023/12/07 07:15:14;;;;;;;33.90;15.45;;;0.20;99.90;;;;;;4966985;28;20027;-62
2023/12/07 07:17:39;;;;;;;43.22;17.30;;;0.30;99.90;;;;;;4971400;28;20073;-62
2023/12/07 07:20:06;;;;;;;45.88;16.92;;;0.30;99.90;;;;;;4969067;28;20067;-62
2023/12/07 07:22:31;;;;;;;41.90;17.27;;;0.40;99.90;;;;;;4970326;28;20027;-61
2023/12/07 07:24:56;;;;;;;41.38;16.52;;;0.30;99.90;;;;;;4968550;28;20550;-62
2023/12/07 07:27:22;;;;;;;33.58;15.35;;;0.20;99.90;;;;;;4971396;28;20047;-62
2023/12/07 07:29:48;;;;;;;37.47;14.80;;;0.20;99.90;;;;;;4967475;28;20031;-63
2023/12/07 07:32:13;;;;;;;42.97;17.00;;;0.20;99.90;;;;;;4972058;28;20500;-62
2023/12/07 07:34:39;;;;;;;41.10;15.43;;;0.20;99.90;;;;;;4970279;28;20045;-62
2023/12/07 07:37:06;;;;;;;40.22;16.23;;;0.20;99.90;;;;;;4976141;28;20420;-62
2023/12/07 07:39:32;;;;;;;42.33;17.27;;;0.30;99.90;;;;;;4970207;28;20031;-62
2023/12/07 07:41:58;;;;;;;39.88;16.13;;;0.30;99.90;;;;;;4968405;28;20037;-62
2023/12/07 07:44:23;;;;;;;36.58;15.23;;;0.30;99.90;;;;;;4970308;28;20090;-61
2023/12/07 07:46:49;;;;;;;35.78;15.07;;;0.30;99.90;;;;;;4970362;28;20031;-62
2023/12/07 07:49:14;;;;;;;43.00;16.27;;;0.30;99.90;;;;;;4969230;28;20031;-62
2023/12/07 07:51:39;;;;;;;35.35;16.02;;;0.30;99.90;;;;;;4971234;28;20038;-61
2023/12/07 07:54:05;;;;;;;34.95;16.35;;;0.30;99.90;;;;;;4967731;28;20110;-62
2023/12/07 07:56:30;;;;;;;48.25;16.58;;;0.30;99.90;;;;;;4966029;28;20436;-62
2023/12/07 07:58:59;;;;;;;43.22;18.17;;;0.20;99.90;;;;;;4964758;28;20031;-61
2023/12/07 08:01:25;;;;;;;39.03;16.42;;;0.30;99.90;;;;;;4964041;28;20081;-62
2023/12/07 08:03:50;;;;;;;42.42;16.80;;;0.30;99.90;;;;;;4969222;28;20031;-62
2023/12/07 08:06:16;;;;;;;38.33;16.83;;;0.30;99.90;;;;;;4968542;28;20038;-62
2023/12/07 08:08:41;;;;;;;44.65;18.33;;;0.30;99.90;;;;;;4970193;28;20038;-62
2023/12/07 08:11:07;;;;;;;42.25;17.15;;;0.40;99.90;;;;;;4969557;28;20019;-62
2023/12/07 08:13:32;;;;;;;52.85;19.13;;;0.40;99.90;;;;;;4969721;28;20027;-62
2023/12/07 08:15:58;;;;;;;45.92;16.60;;;0.50;99.90;;;;;;4967219;28;20035;-62
2023/12/07 08:18:23;;;;;;;53.17;19.95;;;0.50;99.90;;;;;;4970622;28;20042;-61
2023/12/07 08:20:49;;;;;;;46.80;19.42;;;0.60;99.90;;;;;;4971225;28;20459;-62
2023/12/07 08:23:14;;;;;;;56.10;19.70;;;0.60;99.90;;;;;;4971184;28;20039;-62
2023/12/07 08:25:40;;;;;;;51.90;19.17;;;0.70;99.90;;;;;;4971904;28;20031;-62
2023/12/07 08:28:05;;;;;;;47.08;19.58;;;0.70;99.90;;;;;;4970783;28;20037;-62
2023/12/07 08:30:31;;;;;;;47.28;18.48;;;0.80;99.90;;;;;;4968830;28;20042;-62
2023/12/07 08:32:56;;;;;;;44.95;19.27;;;0.80;99.90;;;;;;4971313;28;20034;-62
2023/12/07 08:35:23;;;;;;;58.22;22.38;;;0.90;99.90;;;;;;4971891;28;20027;-62
2023/12/07 08:37:48;;;;;;;60.83;21.08;;;0.90;99.90;;;;;;4970719;28;20038;-61
2023/12/07 08:40:15;;;;;;;51.85;20.98;;;1.00;99.90;;;;;;4971531;28;20027;-62
2023/12/07 08:42:41;;;;;;;56.47;23.38;;;1.00;99.90;;;;;;4970130;28;20039;-62
2023/12/07 08:45:06;;;;;;;61.70;22.08;;;1.10;99.90;;;;;;4970199;28;20081;-63
2023/12/07 08:47:33;;;;;;;55.53;21.02;;;1.10;99.90;;;;;;4970765;28;20588;-62
2023/12/07 08:49:58;;;;;;;58.65;21.55;;;1.20;99.90;;;;;;4970350;28;20043;-62
2023/12/07 08:52:24;;;;;;;58.00;21.33;;;1.30;99.90;;;;;;4970022;28;20106;-62
2023/12/07 08:54:49;;;;;;;46.97;18.88;;;1.30;99.90;;;;;;4968314;28;20524;-61
2023/12/07 08:57:17;;;;;;;51.67;21.88;;;1.40;99.90;;;;;;4968559;28;20023;-62
2023/12/07 08:59:42;;;;;;;50.55;19.13;;;1.40;99.90;;;;;;4964916;28;20097;-61
2023/12/07 09:02:08;;;;;;;51.22;20.40;;;1.40;99.90;;;;;;4963771;28;20501;-62
2023/12/07 09:04:33;;;;;;;50.42;20.20;;;1.50;99.90;;;;;;4966552;28;20030;-62
2023/12/07 09:06:59;;;;;;;53.92;21.80;;;1.50;99.90;;;;;;4968952;28;20366;-62
2023/12/07 09:09:25;;;;;;;53.97;19.73;;;1.50;99.90;;;;;;4963197;28;20023;-61
2023/12/07 09:11:51;;;;;;;51.75;20.20;;;1.60;99.90;;;;;;4965856;28;20031;-61
2023/12/07 09:14:16;;;;;;;51.53;21.83;;;1.60;99.90;;;;;;4966246;28;20020;-62
2023/12/07 09:16:45;;;;;;;46.20;19.30;;;1.70;99.90;;;;;;4969034;28;20035;-62
2023/12/07 09:19:13;;;;;;;44.13;20.05;;;1.80;99.90;;;;;;4968937;28;20054;-61
2023/12/07 09:21:40;;;;;;;47.38;20.30;;;1.90;99.90;;;;;;4970373;28;20034;-61
2023/12/07 09:24:06;;;;;;;57.92;20.30;;;1.90;99.90;;;;;;4972549;28;20172;-62
2023/12/07 09:26:32;;;;;;;43.28;18.55;;;1.90;99.90;;;;;;4971329;28;20521;-62
2023/12/07 09:28:57;;;;;;;47.58;20.17;;;2.00;99.90;;;;;;4972791;28;20065;-62
2023/12/07 09:31:23;;;;;;;51.05;20.88;;;2.00;99.90;;;;;;4972747;28;20042;-61
2023/12/07 09:33:48;;;;;;;43.67;18.92;;;2.00;99.90;;;;;;4972031;28;20027;-62
2023/12/07 09:36:18;;;;;;;53.20;20.77;;;2.10;99.90;;;;;;4965857;28;20059;-62
2023/12/07 09:38:44;;;;;;;46.53;21.45;;;2.20;99.90;;;;;;4969142;28;20557;-62
2023/12/07 09:41:10;;;;;;;55.00;22.85;;;2.30;99.90;;;;;;4964507;28;20110;-62
2023/12/07 09:43:35;;;;;;;49.83;23.55;;;2.30;99.90;;;;;;4969410;28;20034;-62
2023/12/07 09:46:01;;;;;;;49.42;22.00;;;2.40;99.90;;;;;;4973055;28;20109;-60
2023/12/07 09:48:27;;;;;;;56.22;23.10;;;2.40;99.90;;;;;;4970899;28;20061;-61
2023/12/07 09:50:55;;;;;;;53.13;22.48;;;2.50;99.90;;;;;;4967078;28;20039;-62
2023/12/07 09:53:20;;;;;;;55.45;23.00;;;2.50;99.90;;;;;;4971289;28;20692;-64
2023/12/07 09:55:47;;;;;;;48.88;20.70;;;2.50;99.90;;;;;;4964856;28;20037;-62
2023/12/07 09:58:13;;;;;;;52.33;22.45;;;2.60;99.90;;;;;;4970128;28;20113;-63
2023/12/07 10:00:38;;;;;;;59.28;21.45;;;2.60;99.90;;;;;;4973942;28;20113;-62
2023/12/07 10:03:09;;;;;;;46.28;21.30;;;2.70;99.90;;;;;;4973857;28;20109;-61
2023/12/07 10:05:52;;;;;;;57.83;22.48;;;2.80;99.90;;;;;;4965078;28;20039;-61
2023/12/07 10:08:37;;;;;;;48.03;21.10;;;2.90;99.90;;;;;;4969615;28;20038;-62
2023/12/07 10:11:07;;;;;;;45.80;21.05;;;2.90;99.90;;;;;;4972480;28;20394;-62
2023/12/07 10:13:36;;;;;;;46.40;20.25;;;2.90;99.90;;;;;;4970927;28;20507;-61
2023/12/07 10:16:20;;;;;;;42.53;20.20;;;2.90;99.90;;;;;;4969248;28;20089;-62
2023/12/07 10:18:45;;;;;;;44.33;19.97;;;2.90;99.90;;;;;;4967011;28;20039;-61
2023/12/07 10:21:11;;;;;;;45.95;21.00;;;2.90;99.90;;;;;;4971309;28;20030;-62
2023/12/07 10:23:38;;;;;;;42.17;19.75;;;3.10;99.90;;;;;;4973482;28;20034;-62
2023/12/07 10:26:05;;;;;;;47.15;20.60;;;3.20;99.90;;;;;;4971760;28;20520;-62
2023/12/07 10:28:33;;;;;;;41.88;20.02;;;3.20;99.90;;;;;;4971008;28;20066;-62
2023/12/07 10:30:58;;;;;;;43.08;20.33;;;3.10;99.90;;;;;;4970046;28;21706;-64
2023/12/07 10:33:26;;;;;;;41.22;19.80;;;3.10;99.90;;;;;;4970794;28;20039;-62
2023/12/07 10:35:51;;;;;;;42.75;20.70;;;3.20;99.90;;;;;;4968832;28;20023;-62
2023/12/07 10:38:18;;;;;;;44.38;19.55;;;3.30;99.90;;;;;;4969879;28;20077;-61
2023/12/07 10:40:45;;;;;;;47.55;19.63;;;3.50;99.90;;;;;;4969142;28;20026;-62
2023/12/07 10:43:12;;;;;;;49.33;19.63;;;3.60;99.90;;;;;;4971071;28;20038;-63
2023/12/07 10:45:40;;;;;;;47.15;19.25;;;3.60;99.90;;;;;;4973142;28;20031;-61
2023/12/07 10:48:10;;;;;;;41.78;19.20;;;3.70;99.90;;;;;;4971032;28;20031;-62
2023/12/07 10:50:49;;;;;;;40.38;18.17;;;3.70;99.90;;;;;;4970280;28;20015;-61
2023/12/07 10:53:24;;;;;;;36.97;17.08;;;3.70;99.90;;;;;;4969356;28;20161;-63
2023/12/07 10:55:56;;;;;;;41.72;19.67;;;3.80;99.90;;;;;;4969835;28;20049;-62
2023/12/07 10:58:25;;;;;;;36.03;17.92;;;3.80;99.90;;;;;;4969501;28;20026;-62
2023/12/07 11:00:55;;;;;;;39.45;16.45;;;3.90;99.90;;;;;;4971043;28;20030;-62
2023/12/07 11:03:21;;;;;;;33.38;17.48;;;3.90;99.90;;;;;;4967587;28;20045;-62
2023/12/07 11:05:47;;;;;;;39.97;17.65;;;3.80;99.90;;;;;;4973031;28;20073;-61
2023/12/07 11:08:37;;;;;;;33.53;15.35;;;3.80;99.90;;;;;;4968235;28;20082;-61
2023/12/07 11:11:29;;;;;;;37.50;16.33;;;3.80;99.90;;;;;;4967957;28;20038;-66
2023/12/07 11:14:11;;;;;;;34.40;14.55;;;3.90;99.90;;;;;;4972198;28;20097;-62
2023/12/07 11:16:41;;;;;;;33.45;15.52;;;3.80;99.90;;;;;;4968096;28;20453;-62
2023/12/07 11:19:33;;;;;;;29.05;14.00;;;3.90;99.90;;;;;;4967899;28;20019;-62
2023/12/07 11:22:00;;;;;;;24.90;13.73;;;3.70;99.90;;;;;;4963756;28;20043;-62
2023/12/07 11:24:26;;;;;;;27.15;13.35;;;3.70;99.90;;;;;;4968366;28;20113;-62
2023/12/07 11:26:57;;;;;;;29.80;14.77;;;3.70;99.90;;;;;;4968074;28;20133;-62
2023/12/07 11:29:29;;;;;;;26.02;13.18;;;3.70;99.90;;;;;;4967687;28;20085;-61
2023/12/07 11:32:02;;;;;;;35.85;14.23;;;3.70;99.90;;;;;;4971190;28;20033;-61
2023/12/07 11:34:41;;;;;;;29.77;13.50;;;3.60;99.90;;;;;;4972374;28;20125;-62
2023/12/07 11:37:07;;;;;;;35.55;14.90;;;3.70;99.90;;;;;;4967079;28;20030;-62
2023/12/07 11:39:45;;;;;;;30.35;13.50;;;3.90;99.90;;;;;;4970890;28;20022;-62
2023/12/07 11:42:19;;;;;;;24.35;12.80;;;3.90;99.90;;;;;;4969371;28;20117;-62
2023/12/07 11:44:48;;;;;;;32.40;13.80;;;4.00;99.90;;;;;;4965740;28;20035;-62
2023/12/07 11:47:19;;;;;;;27.50;13.55;;;4.10;99.90;;;;;;4967685;28;20046;-61
2023/12/07 11:49:45;;;;;;;25.65;12.32;;;4.20;99.90;;;;;;4967410;28;20444;-62
2023/12/07 11:52:21;;;;;;;26.10;12.30;;;4.30;99.90;;;;;;4971418;28;20524;-62
2023/12/07 11:54:48;;;;;;;25.77;13.20;;;4.40;99.90;;;;;;4970822;28;20397;-61
2023/12/07 11:57:15;;;;;;;27.73;13.70;;;4.60;99.90;;;;;;4971419;28;20049;-62
2023/12/07 11:59:41;;;;;;;27.52;12.50;;;4.60;99.90;;;;;;4970341;28;20030;-62
2023/12/07 12:02:07;;;;;;;30.20;14.27;;;4.80;99.90;;;;;;4968841;28;20025;-62
2023/12/07 12:04:32;;;;;;;22.63;12.23;;;4.80;99.90;;;;;;4971356;28;20026;-62
2023/12/07 12:06:58;;;;;;;20.35;11.40;;;4.80;99.90;;;;;;4970336;28;20030;-62
2023/12/07 12:09:26;;;;;;;31.95;11.63;;;5.00;99.90;;;;;;4969668;28;20038;-62
2023/12/07 12:11:52;;;;;;;24.20;11.48;;;5.10;99.90;;;;;;4970322;28;20034;-62
2023/12/07 12:14:18;;;;;;;21.02;10.88;;;5.20;99.90;;;;;;4965407;28;20022;-62
2023/12/07 12:16:45;;;;;;;23.67;10.93;;;5.40;99.90;;;;;;4967214;28;20023;-62
2023/12/07 12:19:11;;;;;;;26.90;11.18;;;5.40;99.90;;;;;;4966045;28;20034;-61
2023/12/07 12:21:40;;;;;;;23.05;10.68;;;5.30;99.90;;;;;;4968168;28;20567;-61
2023/12/07 12:24:06;;;;;;;20.52;10.43;;;5.60;99.90;;;;;;4968276;28;20098;-61
2023/12/07 12:26:39;;;;;;;22.52;10.68;;;5.60;99.90;;;;;;4966947;28;20031;-62
2023/12/07 12:29:06;;;;;;;26.90;10.68;;;5.60;99.90;;;;;;4967113;28;20030;-62
2023/12/07 12:31:32;;;;;;;17.20;10.57;;;5.60;99.90;;;;;;4969505;28;20086;-62
2023/12/07 12:33:57;;;;;;;21.20;11.55;;;5.60;99.90;;;;;;4967057;28;20486;-62